sensor_id;sensor_type;location;lat;lon;timestamp;pressure;altitude;pressure_sealevel;temperature;humidity
31771;BME280;18343;50.152;8.182;2022-08-01T00:01:56;97495.94;;;23.16;68.87
31771;BME280;18343;50.152;8.182;2022-08-01T00:04:24;97490.72;;;23.14;69.24
31771;BME280;18343;50.152;8.182;2022-08-01T00:06:51;97496.19;;;23.14;69.29
31771;BME280;18343;50.152;8.182;2022-08-01T00:09:20;97498.38;;;23.12;68.88
31771;BME280;18343;50.152;8.182;2022-08-01T00:11:48;97498.38;;;23.12;69.07
31771;BME280;18343;50.152;8.182;2022-08-01T00:14:15;97492.91;;;23.12;69.09
31771;BME280;18343;50.152;8.182;2022-08-01T00:16:43;97496.75;;;23.11;69.44
31771;BME280;18343;50.152;8.182;2022-08-01T00:19:10;97496.75;;;23.11;69.62
31771;BME280;18343;50.152;8.182;2022-08-01T00:21:38;97481.38;;;23.10;69.46
31771;BME280;18343;50.152;8.182;2022-08-01T00:24:06;97493.72;;;23.08;69.75
31771;BME280;18343;50.152;8.182;2022-08-01T00:26:35;97490.41;;;23.06;69.38
31771;BME280;18343;50.152;8.182;2022-08-01T00:29:02;97498.91;;;23.04;70.11
31771;BME280;18343;50.152;8.182;2022-08-01T00:31:30;97494.53;;;23.03;69.53
31771;BME280;18343;50.152;8.182;2022-08-01T00:33:58;97492.06;;;23.02;69.98
31771;BME280;18343;50.152;8.182;2022-08-01T00:36:25;97501.63;;;22.99;69.68
31771;BME280;18343;50.152;8.182;2022-08-01T00:38:53;97498.91;;;22.99;70.02
31771;BME280;18343;50.152;8.182;2022-08-01T00:41:20;97502.72;;;22.98;70.11
31771;BME280;18343;50.152;8.182;2022-08-01T00:43:49;97495.91;;;22.95;70.13
31771;BME280;18343;50.152;8.182;2022-08-01T00:46:17;97497.00;;;22.94;70.17
31771;BME280;18343;50.152;8.182;2022-08-01T00:48:44;97487.13;;;22.93;70.30
31771;BME280;18343;50.152;8.182;2022-08-01T00:51:13;97486.56;;;22.91;70.03
31771;BME280;18343;50.152;8.182;2022-08-01T00:53:41;97492.88;;;22.92;70.71
31771;BME280;18343;50.152;8.182;2022-08-01T00:56:09;97490.66;;;22.89;70.37
31771;BME280;18343;50.152;8.182;2022-08-01T00:58:37;97489.84;;;22.88;70.10
31771;BME280;18343;50.152;8.182;2022-08-01T01:01:06;97499.16;;;22.87;70.13
31771;BME280;18343;50.152;8.182;2022-08-01T01:03:33;97489.56;;;22.85;70.63
31771;BME280;18343;50.152;8.182;2022-08-01T01:06:13;97488.16;;;22.82;70.24
31771;BME280;18343;50.152;8.182;2022-08-01T01:08:46;97488.44;;;22.81;70.08
31771;BME280;18343;50.152;8.182;2022-08-01T01:11:28;97484.31;;;22.78;70.23
31771;BME280;18343;50.152;8.182;2022-08-01T01:14:04;97488.13;;;22.77;70.45
31771;BME280;18343;50.152;8.182;2022-08-01T01:16:34;97485.66;;;22.76;70.99
31771;BME280;18343;50.152;8.182;2022-08-01T01:19:05;97485.66;;;22.76;70.66
31771;BME280;18343;50.152;8.182;2022-08-01T01:21:53;97484.25;;;22.73;70.67
31771;BME280;18343;50.152;8.182;2022-08-01T01:24:36;97478.53;;;22.70;70.43
31771;BME280;18343;50.152;8.182;2022-08-01T01:27:13;97477.13;;;22.67;70.60
31771;BME280;18343;50.152;8.182;2022-08-01T01:29:49;97482.88;;;22.66;71.07
31771;BME280;18343;50.152;8.182;2022-08-01T01:32:24;97484.81;;;22.65;71.11
31771;BME280;18343;50.152;8.182;2022-08-01T01:34:55;97490.56;;;22.63;71.09
31771;BME280;18343;50.152;8.182;2022-08-01T01:37:25;97490.81;;;22.62;71.15
31771;BME280;18343;50.152;8.182;2022-08-01T01:39:54;97492.75;;;22.61;71.13
31771;BME280;18343;50.152;8.182;2022-08-01T01:42:25;97483.97;;;22.59;71.08
31771;BME280;18343;50.152;8.182;2022-08-01T01:44:55;97483.41;;;22.57;70.92
31771;BME280;18343;50.152;8.182;2022-08-01T01:47:23;97492.72;;;22.56;71.29
31771;BME280;18343;50.152;8.182;2022-08-01T01:49:53;97494.91;;;22.54;71.59
31771;BME280;18343;50.152;8.182;2022-08-01T01:52:26;97497.91;;;22.53;71.42
31771;BME280;18343;50.152;8.182;2022-08-01T01:54:56;97498.72;;;22.53;71.64
31771;BME280;18343;50.152;8.182;2022-08-01T01:57:24;97503.38;;;22.53;71.51
31771;BME280;18343;50.152;8.182;2022-08-01T01:59:54;97498.44;;;22.50;71.42
31771;BME280;18343;50.152;8.182;2022-08-01T02:02:23;97502.25;;;22.49;71.18
31771;BME280;18343;50.152;8.182;2022-08-01T02:04:51;97494.31;;;22.47;71.31
31771;BME280;18343;50.152;8.182;2022-08-01T02:07:23;97497.31;;;22.46;71.36
31771;BME280;18343;50.152;8.182;2022-08-01T02:09:53;97501.16;;;22.45;71.40
31771;BME280;18343;50.152;8.182;2022-08-01T02:12:21;97492.94;;;22.45;71.61
31771;BME280;18343;50.152;8.182;2022-08-01T02:14:50;97496.22;;;22.42;71.67
31771;BME280;18343;50.152;8.182;2022-08-01T02:17:24;97497.06;;;22.42;71.81
31771;BME280;18343;50.152;8.182;2022-08-01T02:19:53;97494.56;;;22.41;71.93
31771;BME280;18343;50.152;8.182;2022-08-01T02:22:29;97503.06;;;22.39;71.76
31771;BME280;18343;50.152;8.182;2022-08-01T02:25:03;97506.91;;;22.38;71.87
31771;BME280;18343;50.152;8.182;2022-08-01T02:27:37;97507.16;;;22.37;72.27
31771;BME280;18343;50.152;8.182;2022-08-01T02:30:10;97503.84;;;22.35;72.41
31771;BME280;18343;50.152;8.182;2022-08-01T02:32:45;97509.03;;;22.31;72.35
31771;BME280;18343;50.152;8.182;2022-08-01T02:35:20;97506.31;;;22.31;72.16
31771;BME280;18343;50.152;8.182;2022-08-01T02:37:51;97505.75;;;22.29;72.73
31771;BME280;18343;50.152;8.182;2022-08-01T02:40:20;97501.34;;;22.28;72.80
31771;BME280;18343;50.152;8.182;2022-08-01T02:42:50;97499.97;;;22.25;72.72
31771;BME280;18343;50.152;8.182;2022-08-01T02:45:25;97504.88;;;22.23;72.60
31771;BME280;18343;50.152;8.182;2022-08-01T02:48:00;97501.59;;;22.21;72.69
31771;BME280;18343;50.152;8.182;2022-08-01T02:50:33;97497.44;;;22.19;72.74
31771;BME280;18343;50.152;8.182;2022-08-01T02:53:06;97493.06;;;22.18;73.03
31771;BME280;18343;50.152;8.182;2022-08-01T02:55:37;97502.09;;;22.18;73.30
31771;BME280;18343;50.152;8.182;2022-08-01T02:58:07;97507.03;;;22.16;73.10
31771;BME280;18343;50.152;8.182;2022-08-01T03:00:37;97503.47;;;22.16;73.23
31771;BME280;18343;50.152;8.182;2022-08-01T03:03:08;97507.59;;;22.13;72.88
31771;BME280;18343;50.152;8.182;2022-08-01T03:05:38;97500.44;;;22.12;73.16
31771;BME280;18343;50.152;8.182;2022-08-01T03:08:09;97505.63;;;22.09;73.62
31771;BME280;18343;50.152;8.182;2022-08-01T03:10:41;97501.25;;;22.08;73.71
31771;BME280;18343;50.152;8.182;2022-08-01T03:13:10;97503.41;;;22.06;73.75
31771;BME280;18343;50.152;8.182;2022-08-01T03:15:39;97506.16;;;22.06;73.99
31771;BME280;18343;50.152;8.182;2022-08-01T03:18:13;97501.78;;;22.05;73.59
31771;BME280;18343;50.152;8.182;2022-08-01T03:20:42;97502.84;;;22.04;73.67
31771;BME280;18343;50.152;8.182;2022-08-01T03:23:12;97499.56;;;22.02;74.13
31771;BME280;18343;50.152;8.182;2022-08-01T03:25:42;97508.84;;;22.01;74.05
31771;BME280;18343;50.152;8.182;2022-08-01T03:28:13;97501.69;;;22.00;74.47
31771;BME280;18343;50.152;8.182;2022-08-01T03:30:43;97508.25;;;21.99;74.39
31771;BME280;18343;50.152;8.182;2022-08-01T03:33:12;97514.00;;;21.97;74.38
31771;BME280;18343;50.152;8.182;2022-08-01T03:35:47;97505.22;;;21.95;74.35
31771;BME280;18343;50.152;8.182;2022-08-01T03:38:22;97509.06;;;21.94;74.10
31771;BME280;18343;50.152;8.182;2022-08-01T03:40:55;97510.13;;;21.93;74.50
31771;BME280;18343;50.152;8.182;2022-08-01T03:43:30;97508.75;;;21.90;74.62
31771;BME280;18343;50.152;8.182;2022-08-01T03:46:05;97504.34;;;21.89;74.72
31771;BME280;18343;50.152;8.182;2022-08-01T03:48:40;97503.53;;;21.89;75.14
31771;BME280;18343;50.152;8.182;2022-08-01T03:51:10;97513.66;;;21.88;74.83
31771;BME280;18343;50.152;8.182;2022-08-01T03:53:42;97509.31;;;21.87;75.22
31771;BME280;18343;50.152;8.182;2022-08-01T03:56:10;97501.34;;;21.86;75.42
31771;BME280;18343;50.152;8.182;2022-08-01T03:58:40;97498.63;;;21.86;75.59
31771;BME280;18343;50.152;8.182;2022-08-01T04:01:09;97500.78;;;21.84;75.39
31771;BME280;18343;50.152;8.182;2022-08-01T04:03:38;97511.75;;;21.84;75.42
31771;BME280;18343;50.152;8.182;2022-08-01T04:06:07;97514.72;;;21.82;75.71
31771;BME280;18343;50.152;8.182;2022-08-01T04:08:37;97512.00;;;21.82;75.71
31771;BME280;18343;50.152;8.182;2022-08-01T04:11:05;97504.88;;;21.81;75.93
31771;BME280;18343;50.152;8.182;2022-08-01T04:13:33;97514.16;;;21.80;75.78
31771;BME280;18343;50.152;8.182;2022-08-01T04:16:03;97515.25;;;21.79;75.83
31771;BME280;18343;50.152;8.182;2022-08-01T04:18:31;97507.31;;;21.78;75.93
31771;BME280;18343;50.152;8.182;2022-08-01T04:21:00;97508.13;;;21.78;75.86
31771;BME280;18343;50.152;8.182;2022-08-01T04:23:29;97505.66;;;21.77;75.87
31771;BME280;18343;50.152;8.182;2022-08-01T04:26:00;97503.19;;;21.75;76.24
31771;BME280;18343;50.152;8.182;2022-08-01T04:28:32;97507.56;;;21.76;76.24
31771;BME280;18343;50.152;8.182;2022-08-01T04:31:05;97518.78;;;21.75;76.62
31771;BME280;18343;50.152;8.182;2022-08-01T04:33:36;97524.00;;;21.76;76.32
31771;BME280;18343;50.152;8.182;2022-08-01T04:36:07;97521.50;;;21.75;76.18
31771;BME280;18343;50.152;8.182;2022-08-01T04:38:36;97523.69;;;21.73;76.53
31771;BME280;18343;50.152;8.182;2022-08-01T04:41:05;97523.69;;;21.73;76.63
31771;BME280;18343;50.152;8.182;2022-08-01T04:43:34;97527.25;;;21.73;76.74
31771;BME280;18343;50.152;8.182;2022-08-01T04:46:02;97537.38;;;21.73;76.71
31771;BME280;18343;50.152;8.182;2022-08-01T04:48:33;97532.16;;;21.71;76.90
31771;BME280;18343;50.152;8.182;2022-08-01T04:51:13;97544.19;;;21.70;76.73
31771;BME280;18343;50.152;8.182;2022-08-01T04:53:48;97535.16;;;21.70;77.10
31771;BME280;18343;50.152;8.182;2022-08-01T04:56:17;97537.63;;;21.71;77.13
31771;BME280;18343;50.152;8.182;2022-08-01T04:58:45;97538.97;;;21.69;77.34
31771;BME280;18343;50.152;8.182;2022-08-01T05:01:13;97540.63;;;21.70;77.37
31771;BME280;18343;50.152;8.182;2022-08-01T05:03:41;97547.19;;;21.69;77.22
31771;BME280;18343;50.152;8.182;2022-08-01T05:06:17;97545.78;;;21.66;77.58
31771;BME280;18343;50.152;8.182;2022-08-01T05:08:45;97539.25;;;21.67;77.82
31771;BME280;18343;50.152;8.182;2022-08-01T05:11:15;97542.81;;;21.68;77.95
31771;BME280;18343;50.152;8.182;2022-08-01T05:13:43;97546.38;;;21.68;78.24
31771;BME280;18343;50.152;8.182;2022-08-01T05:16:10;97545.53;;;21.68;78.05
31771;BME280;18343;50.152;8.182;2022-08-01T05:18:37;97548.28;;;21.68;78.41
31771;BME280;18343;50.152;8.182;2022-08-01T05:21:08;97548.28;;;21.68;78.53
31771;BME280;18343;50.152;8.182;2022-08-01T05:23:39;97553.19;;;21.66;78.18
31771;BME280;18343;50.152;8.182;2022-08-01T05:26:10;97551.28;;;21.66;78.21
31771;BME280;18343;50.152;8.182;2022-08-01T05:28:39;97548.28;;;21.68;78.91
31771;BME280;18343;50.152;8.182;2022-08-01T05:31:07;97554.56;;;21.68;78.84
31771;BME280;18343;50.152;8.182;2022-08-01T05:33:35;97547.72;;;21.66;78.93
31771;BME280;18343;50.152;8.182;2022-08-01T05:36:03;97553.19;;;21.66;78.71
31771;BME280;18343;50.152;8.182;2022-08-01T05:38:31;97557.84;;;21.65;79.18
31771;BME280;18343;50.152;8.182;2022-08-01T05:41:00;97557.00;;;21.65;79.03
31771;BME280;18343;50.152;8.182;2022-08-01T05:43:27;97551.78;;;21.63;79.17
31771;BME280;18343;50.152;8.182;2022-08-01T05:45:55;97553.69;;;21.62;79.40
31771;BME280;18343;50.152;8.182;2022-08-01T05:48:24;97557.25;;;21.63;79.31
31771;BME280;18343;50.152;8.182;2022-08-01T05:50:52;97556.69;;;21.61;79.69
31771;BME280;18343;50.152;8.182;2022-08-01T05:53:20;97554.78;;;21.61;79.68
31771;BME280;18343;50.152;8.182;2022-08-01T05:55:48;97554.78;;;21.61;79.52
31771;BME280;18343;50.152;8.182;2022-08-01T05:58:17;97561.38;;;21.60;79.71
31771;BME280;18343;50.152;8.182;2022-08-01T06:00:45;97568.75;;;21.60;79.76
31771;BME280;18343;50.152;8.182;2022-08-01T06:03:13;97563.28;;;21.60;79.73
31771;BME280;18343;50.152;8.182;2022-08-01T06:05:41;97566.03;;;21.60;79.60
31771;BME280;18343;50.152;8.182;2022-08-01T06:08:08;97565.19;;;21.59;79.84
31771;BME280;18343;50.152;8.182;2022-08-01T06:10:36;97570.66;;;21.59;79.87
31771;BME280;18343;50.152;8.182;2022-08-01T06:13:04;97573.41;;;21.59;80.06
31771;BME280;18343;50.152;8.182;2022-08-01T06:15:33;97566.03;;;21.60;79.88
31771;BME280;18343;50.152;8.182;2022-08-01T06:18:03;97577.78;;;21.60;80.10
31771;BME280;18343;50.152;8.182;2022-08-01T06:20:31;97588.44;;;21.62;80.31
31771;BME280;18343;50.152;8.182;2022-08-01T06:22:58;97589.53;;;21.61;80.31
31771;BME280;18343;50.152;8.182;2022-08-01T06:25:34;97595.84;;;21.61;80.62
31771;BME280;18343;50.152;8.182;2022-08-01T06:28:02;97595.84;;;21.61;80.53
31771;BME280;18343;50.152;8.182;2022-08-01T06:30:29;97602.13;;;21.62;80.49
31771;BME280;18343;50.152;8.182;2022-08-01T06:32:58;97593.09;;;21.61;80.47
31771;BME280;18343;50.152;8.182;2022-08-01T06:35:26;97598.31;;;21.63;80.82
31771;BME280;18343;50.152;8.182;2022-08-01T06:37:55;97597.75;;;21.61;80.60
31771;BME280;18343;50.152;8.182;2022-08-01T06:40:23;97600.22;;;21.62;80.48
31771;BME280;18343;50.152;8.182;2022-08-01T06:42:51;97602.97;;;21.62;81.28
31771;BME280;18343;50.152;8.182;2022-08-01T06:45:21;97603.78;;;21.63;80.98
31771;BME280;18343;50.152;8.182;2022-08-01T06:47:52;97603.78;;;21.63;81.07
31771;BME280;18343;50.152;8.182;2022-08-01T06:50:21;97603.78;;;21.63;81.04
31771;BME280;18343;50.152;8.182;2022-08-01T06:52:49;97607.91;;;21.66;81.41
31771;BME280;18343;50.152;8.182;2022-08-01T06:55:16;97606.28;;;21.65;81.93
31771;BME280;18343;50.152;8.182;2022-08-01T06:57:48;97601.63;;;21.65;81.66
31771;BME280;18343;50.152;8.182;2022-08-01T07:00:21;97606.00;;;21.66;81.48
31771;BME280;18343;50.152;8.182;2022-08-01T07:02:49;97595.31;;;21.65;81.34
31771;BME280;18343;50.152;8.182;2022-08-01T07:05:17;97591.50;;;21.66;82.11
31771;BME280;18343;50.152;8.182;2022-08-01T07:07:46;97586.84;;;21.66;81.81
31771;BME280;18343;50.152;8.182;2022-08-01T07:10:14;97592.06;;;21.68;82.30
31771;BME280;18343;50.152;8.182;2022-08-01T07:12:42;97583.59;;;21.69;82.08
31771;BME280;18343;50.152;8.182;2022-08-01T07:15:15;97576.22;;;21.70;82.58
31771;BME280;18343;50.152;8.182;2022-08-01T07:17:47;97573.22;;;21.71;82.34
31771;BME280;18343;50.152;8.182;2022-08-01T07:20:19;97571.31;;;21.72;82.43
31771;BME280;18343;50.152;8.182;2022-08-01T07:22:49;97566.41;;;21.74;82.65
31771;BME280;18343;50.152;8.182;2022-08-01T07:25:17;97582.56;;;21.75;82.02
31771;BME280;18343;50.152;8.182;2022-08-01T07:27:44;97581.47;;;21.76;82.24
31771;BME280;18343;50.152;8.182;2022-08-01T07:30:12;97583.13;;;21.77;82.20
31771;BME280;18343;50.152;8.182;2022-08-01T07:32:40;97579.88;;;21.80;82.56
31771;BME280;18343;50.152;8.182;2022-08-01T07:35:11;97581.25;;;21.83;82.90
31771;BME280;18343;50.152;8.182;2022-08-01T07:37:39;97579.38;;;21.88;83.11
31771;BME280;18343;50.152;8.182;2022-08-01T07:40:13;97581.03;;;21.89;83.06
31771;BME280;18343;50.152;8.182;2022-08-01T07:42:41;97584.91;;;21.93;83.52
31771;BME280;18343;50.152;8.182;2022-08-01T07:45:11;97579.97;;;21.95;83.23
31771;BME280;18343;50.152;8.182;2022-08-01T07:47:39;97589.03;;;21.96;83.05
31771;BME280;18343;50.152;8.182;2022-08-01T07:50:08;97587.13;;;21.96;83.00
31771;BME280;18343;50.152;8.182;2022-08-01T07:52:36;97587.69;;;21.99;83.09
31771;BME280;18343;50.152;8.182;2022-08-01T07:55:08;97585.75;;;21.99;83.49
31771;BME280;18343;50.152;8.182;2022-08-01T07:57:53;97589.09;;;22.01;82.91
31771;BME280;18343;50.152;8.182;2022-08-01T08:00:21;97588.84;;;22.03;83.37
31771;BME280;18343;50.152;8.182;2022-08-01T08:02:53;97590.50;;;22.04;83.48
31771;BME280;18343;50.152;8.182;2022-08-01T08:05:21;97584.19;;;22.03;83.93
31771;BME280;18343;50.152;8.182;2022-08-01T08:07:51;97583.94;;;22.05;83.83
31771;BME280;18343;50.152;8.182;2022-08-01T08:10:19;97585.84;;;22.04;84.10
31771;BME280;18343;50.152;8.182;2022-08-01T08:12:47;97595.44;;;22.07;83.90
31771;BME280;18343;50.152;8.182;2022-08-01T08:15:16;97591.88;;;22.06;84.38
31771;BME280;18343;50.152;8.182;2022-08-01T08:17:49;97596.31;;;22.12;84.30
31771;BME280;18343;50.152;8.182;2022-08-01T08:20:17;97595.81;;;22.15;84.23
31771;BME280;18343;50.152;8.182;2022-08-01T08:22:50;97591.13;;;22.16;84.12
31771;BME280;18343;50.152;8.182;2022-08-01T08:25:18;97596.91;;;22.19;84.31
31771;BME280;18343;50.152;8.182;2022-08-01T08:27:47;97598.28;;;22.22;84.02
31771;BME280;18343;50.152;8.182;2022-08-01T08:30:17;97594.72;;;22.21;84.53
31771;BME280;18343;50.152;8.182;2022-08-01T08:32:46;97594.19;;;22.24;84.76
31771;BME280;18343;50.152;8.182;2022-08-01T08:35:13;97599.97;;;22.28;84.63
31771;BME280;18343;50.152;8.182;2022-08-01T08:37:42;97605.19;;;22.29;84.76
31771;BME280;18343;50.152;8.182;2022-08-01T08:40:11;97596.97;;;22.29;84.48
31771;BME280;18343;50.152;8.182;2022-08-01T08:42:40;97602.19;;;22.31;84.40
31771;BME280;18343;50.152;8.182;2022-08-01T08:45:10;97598.63;;;22.31;84.21
31771;BME280;18343;50.152;8.182;2022-08-01T08:47:44;97595.31;;;22.28;84.29
31771;BME280;18343;50.152;8.182;2022-08-01T08:50:14;97596.72;;;22.31;84.16
31771;BME280;18343;50.152;8.182;2022-08-01T08:52:44;97589.88;;;22.34;84.22
31771;BME280;18343;50.152;8.182;2022-08-01T08:55:16;97584.16;;;22.35;84.42
31771;BME280;18343;50.152;8.182;2022-08-01T08:57:49;97583.63;;;22.38;84.33
31771;BME280;18343;50.152;8.182;2022-08-01T09:00:19;97590.50;;;22.41;84.34
31771;BME280;18343;50.152;8.182;2022-08-01T09:02:49;97592.66;;;22.44;84.46
31771;BME280;18343;50.152;8.182;2022-08-01T09:05:18;97590.75;;;22.44;84.43
31771;BME280;18343;50.152;8.182;2022-08-01T09:07:54;97592.41;;;22.45;84.21
31771;BME280;18343;50.152;8.182;2022-08-01T09:10:31;97589.94;;;22.44;84.40
31771;BME280;18343;50.152;8.182;2022-08-01T09:13:08;97583.63;;;22.43;83.95
31771;BME280;18343;50.152;8.182;2022-08-01T09:15:42;97587.19;;;22.44;84.26
31771;BME280;18343;50.152;8.182;2022-08-01T09:21:12;97583.66;;;22.48;84.10
31771;BME280;18343;50.152;8.182;2022-08-01T09:23:44;97590.25;;;22.52;84.11
31771;BME280;18343;50.152;8.182;2022-08-01T09:26:13;97590.28;;;22.57;84.41
31771;BME280;18343;50.152;8.182;2022-08-01T09:28:41;97596.91;;;22.61;84.08
31771;BME280;18343;50.152;8.182;2022-08-01T09:31:11;97596.91;;;22.61;83.72
31771;BME280;18343;50.152;8.182;2022-08-01T09:33:50;97598.81;;;22.61;83.69
31771;BME280;18343;50.152;8.182;2022-08-01T09:36:21;97594.16;;;22.61;83.76
31771;BME280;18343;50.152;8.182;2022-08-01T09:38:49;97597.47;;;22.63;83.66
31771;BME280;18343;50.152;8.182;2022-08-01T09:41:17;97593.63;;;22.65;83.97
31771;BME280;18343;50.152;8.182;2022-08-01T09:43:50;97593.09;;;22.68;83.92
31771;BME280;18343;50.152;8.182;2022-08-01T09:46:17;97592.53;;;22.71;83.72
31771;BME280;18343;50.152;8.182;2022-08-01T09:48:59;97595.03;;;22.72;83.66
31771;BME280;18343;50.152;8.182;2022-08-01T09:51:34;97594.50;;;22.75;83.71
31771;BME280;18343;50.152;8.182;2022-08-01T09:54:03;97590.97;;;22.80;83.15
31771;BME280;18343;50.152;8.182;2022-08-01T09:56:38;97594.56;;;22.80;83.21
31771;BME280;18343;50.152;8.182;2022-08-01T09:59:06;97589.06;;;22.80;82.65
31771;BME280;18343;50.152;8.182;2022-08-01T10:01:45;97579.19;;;22.79;82.60
31771;BME280;18343;50.152;8.182;2022-08-01T10:04:15;97588.25;;;22.80;82.50
31771;BME280;18343;50.152;8.182;2022-08-01T10:06:48;97592.09;;;22.84;82.98
31771;BME280;18343;50.152;8.182;2022-08-01T10:09:28;97587.75;;;22.88;83.16
31771;BME280;18343;50.152;8.182;2022-08-01T10:11:56;97582.84;;;22.95;81.93
31771;BME280;18343;50.152;8.182;2022-08-01T10:14:27;97585.00;;;22.98;81.77
31771;BME280;18343;50.152;8.182;2022-08-01T10:16:57;97583.94;;;22.99;81.77
31771;BME280;18343;50.152;8.182;2022-08-01T10:19:27;97587.22;;;23.01;81.55
31771;BME280;18343;50.152;8.182;2022-08-01T10:21:57;97595.44;;;23.01;81.07
31771;BME280;18343;50.152;8.182;2022-08-01T10:24:28;97593.28;;;23.03;81.11
31771;BME280;18343;50.152;8.182;2022-08-01T10:27:01;97593.28;;;23.03;81.41
31771;BME280;18343;50.152;8.182;2022-08-01T10:29:37;97600.97;;;23.06;80.86
31771;BME280;18343;50.152;8.182;2022-08-01T10:32:05;97593.28;;;23.08;80.30
31771;BME280;18343;50.152;8.182;2022-08-01T10:34:36;97593.84;;;23.10;80.49
31771;BME280;18343;50.152;8.182;2022-08-01T10:37:05;97583.97;;;23.09;80.03
31771;BME280;18343;50.152;8.182;2022-08-01T10:39:35;97583.44;;;23.12;80.32
31771;BME280;18343;50.152;8.182;2022-08-01T10:42:03;97580.16;;;23.15;80.00
31771;BME280;18343;50.152;8.182;2022-08-01T10:44:31;97577.69;;;23.19;80.14
31771;BME280;18343;50.152;8.182;2022-08-01T10:47:08;97574.69;;;23.20;80.56
31771;BME280;18343;50.152;8.182;2022-08-01T10:49:43;97565.91;;;23.23;79.90
31771;BME280;18343;50.152;8.182;2022-08-01T10:52:17;97563.69;;;23.25;79.89
31771;BME280;18343;50.152;8.182;2022-08-01T10:54:44;97565.63;;;23.30;79.31
31771;BME280;18343;50.152;8.182;2022-08-01T10:57:12;97560.69;;;23.32;79.40
31771;BME280;18343;50.152;8.182;2022-08-01T10:59:50;97559.34;;;23.35;79.72
31771;BME280;18343;50.152;8.182;2022-08-01T11:02:27;97559.91;;;23.37;79.30
31771;BME280;18343;50.152;8.182;2022-08-01T11:04:58;97564.03;;;23.39;78.92
31771;BME280;18343;50.152;8.182;2022-08-01T11:07:43;97556.34;;;23.41;79.20
31771;BME280;18343;50.152;8.182;2022-08-01T11:10:21;97552.22;;;23.44;79.03
31771;BME280;18343;50.152;8.182;2022-08-01T11:12:49;97549.22;;;23.50;78.95
31771;BME280;18343;50.152;8.182;2022-08-01T11:15:24;97553.38;;;23.58;78.96
31771;BME280;18343;50.152;8.182;2022-08-01T11:17:53;97546.50;;;23.66;77.58
31771;BME280;18343;50.152;8.182;2022-08-01T11:20:22;97550.91;;;23.67;77.65
31771;BME280;18343;50.152;8.182;2022-08-01T11:23:28;97552.81;;;23.66;78.38
31771;BME280;18343;50.152;8.182;2022-08-01T11:26:20;97546.25;;;23.67;78.23
31771;BME280;18343;50.152;8.182;2022-08-01T11:29:13;97552.28;;;23.69;77.94
31771;BME280;18343;50.152;8.182;2022-08-01T11:31:41;97556.41;;;23.72;76.90
31771;BME280;18343;50.152;8.182;2022-08-01T11:34:08;97553.13;;;23.75;76.55
31771;BME280;18343;50.152;8.182;2022-08-01T11:36:36;97546.25;;;23.77;76.01
31771;BME280;18343;50.152;8.182;2022-08-01T11:39:18;97546.25;;;23.77;76.73
31771;BME280;18343;50.152;8.182;2022-08-01T11:41:48;97550.66;;;23.78;75.69
31771;BME280;18343;50.152;8.182;2022-08-01T11:44:19;97545.69;;;23.80;75.55
31771;BME280;18343;50.152;8.182;2022-08-01T11:46:55;97544.56;;;23.81;75.59
31771;BME280;18343;50.152;8.182;2022-08-01T11:49:49;97544.31;;;23.83;75.89
31771;BME280;18343;50.152;8.182;2022-08-01T11:52:26;97543.47;;;23.82;75.32
31771;BME280;18343;50.152;8.182;2022-08-01T11:54:58;97543.47;;;23.82;74.95
31771;BME280;18343;50.152;8.182;2022-08-01T11:57:33;97544.59;;;23.86;74.30
31771;BME280;18343;50.152;8.182;2022-08-01T12:00:04;97543.47;;;23.87;73.56
31771;BME280;18343;50.152;8.182;2022-08-01T12:02:33;97540.47;;;23.89;73.60
31771;BME280;18343;50.152;8.182;2022-08-01T12:05:05;97533.03;;;23.89;73.17
31771;BME280;18343;50.152;8.182;2022-08-01T12:07:39;97539.66;;;23.93;72.74
31771;BME280;18343;50.152;8.182;2022-08-01T12:10:11;97534.16;;;23.93;73.38
31771;BME280;18343;50.152;8.182;2022-08-01T12:12:44;97529.22;;;23.95;73.12
31771;BME280;18343;50.152;8.182;2022-08-01T12:15:12;97533.88;;;24.00;72.54
31771;BME280;18343;50.152;8.182;2022-08-01T12:17:43;97529.19;;;24.06;73.10
31771;BME280;18343;50.152;8.182;2022-08-01T12:20:13;97529.44;;;24.09;72.55
31771;BME280;18343;50.152;8.182;2022-08-01T12:22:40;97525.03;;;24.13;72.10
31771;BME280;18343;50.152;8.182;2022-08-01T12:25:11;97527.53;;;24.15;72.27
31771;BME280;18343;50.152;8.182;2022-08-01T12:27:40;97535.22;;;24.18;71.79
31771;BME280;18343;50.152;8.182;2022-08-01T12:30:10;97534.13;;;24.19;71.47
31771;BME280;18343;50.152;8.182;2022-08-01T12:32:40;97530.53;;;24.18;71.50
31771;BME280;18343;50.152;8.182;2022-08-01T12:35:10;97527.78;;;24.18;70.84
31771;BME280;18343;50.152;8.182;2022-08-01T12:37:39;97519.53;;;24.18;70.72
31771;BME280;18343;50.152;8.182;2022-08-01T12:40:16;97528.63;;;24.19;71.34
31771;BME280;18343;50.152;8.182;2022-08-01T12:42:46;97540.97;;;24.21;70.74
31771;BME280;18343;50.152;8.182;2022-08-01T12:45:18;97532.72;;;24.21;70.98
31771;BME280;18343;50.152;8.182;2022-08-01T12:47:47;97545.38;;;24.22;69.90
31771;BME280;18343;50.152;8.182;2022-08-01T12:50:18;97547.03;;;24.23;69.88
31771;BME280;18343;50.152;8.182;2022-08-01T12:52:46;97546.19;;;24.23;69.67
31771;BME280;18343;50.152;8.182;2022-08-01T12:55:16;97541.28;;;24.25;69.65
31771;BME280;18343;50.152;8.182;2022-08-01T12:57:46;97548.69;;;24.29;70.05
31771;BME280;18343;50.152;8.182;2022-08-01T13:00:20;97544.56;;;24.32;69.87
31771;BME280;18343;50.152;8.182;2022-08-01T13:02:59;97544.31;;;24.34;70.14
31771;BME280;18343;50.152;8.182;2022-08-01T13:05:27;97545.13;;;24.34;69.29
31771;BME280;18343;50.152;8.182;2022-08-01T13:07:54;97551.72;;;24.33;69.19
31771;BME280;18343;50.152;8.182;2022-08-01T13:10:29;97541.81;;;24.32;69.14
31771;BME280;18343;50.152;8.182;2022-08-01T13:12:58;97540.97;;;24.37;69.77
31771;BME280;18343;50.152;8.182;2022-08-01T13:15:29;97547.28;;;24.37;69.43
31771;BME280;18343;50.152;8.182;2022-08-01T13:18:00;97545.63;;;24.36;69.34
31771;BME280;18343;50.152;8.182;2022-08-01T13:20:32;97547.88;;;24.34;68.84
31771;BME280;18343;50.152;8.182;2022-08-01T13:23:14;97539.63;;;24.29;69.10